Time;durP1;ratioP1;P1;durP2;ratioP2;P2;SDS_P1;SDS_P2;PMS_P1;PMS_P2;Temp;Humidity;BMP_temperature;BMP_pressure;BME280_temperature;BME280_humidity;BME280_pressure;Samples;Min_cycle;Max_cycle;Signal;HPM_P1;HPM_P2
2022/01/15 00:01:41;;;;;;;20.90;13.00;;;;;;;1.14;84.59;99528.75;4107571;28;20550;-89
2022/01/15 00:03:44;;;;;;;29.77;17.85;;;;;;;1.12;84.39;99527.06;4105938;28;20216;-88
2022/01/15 00:05:47;;;;;;;33.97;19.08;;;;;;;1.14;85.22;99522.75;4109639;28;20240;-88
2022/01/15 00:07:53;;;;;;;31.20;19.10;;;;;;;1.13;85.27;99521.91;4093626;28;20237;-88
2022/01/15 00:09:56;;;;;;;23.85;15.18;;;;;;;1.15;85.67;99519.31;4080915;29;20737;-88
2022/01/15 00:11:59;;;;;;;33.20;19.08;;;;;;;1.17;85.36;99520.16;4079307;29;20211;-90
2022/01/15 00:14:13;;;;;;;22.63;16.27;;;;;;;1.17;85.59;99520.16;4089655;28;20225;-88
2022/01/15 00:16:28;;;;;;;31.90;18.90;;;;;;;1.16;85.25;99509.03;4103018;28;20209;-88
2022/01/15 00:18:42;;;;;;;31.10;18.23;;;;;;;1.18;85.51;99507.28;4106218;28;20208;-88
2022/01/15 00:20:47;;;;;;;24.35;15.75;;;;;;;1.18;85.14;99509.03;4078155;28;20250;-88
2022/01/15 00:22:52;;;;;;;19.00;14.70;;;;;;;1.17;85.53;99510.72;4094355;28;20220;-88
2022/01/15 00:24:55;;;;;;;29.50;17.25;;;;;;;1.14;85.15;99504.75;4107671;28;20202;-88
2022/01/15 00:26:58;;;;;;;24.00;15.20;;;;;;;1.12;85.22;99507.34;4090508;28;20224;-88
2022/01/15 00:29:02;;;;;;;25.33;16.13;;;;;;;1.11;85.43;99499.66;4077958;29;20210;-88
2022/01/15 00:31:06;;;;;;;40.38;20.55;;;;;;;1.09;85.23;99498.81;4075265;28;20218;-89
2022/01/15 00:33:10;;;;;;;37.78;20.45;;;;;;;1.08;85.57;99504.81;4081650;29;20229;-87
2022/01/15 00:35:14;;;;;;;22.92;15.20;;;;;;;1.07;85.49;99503.97;4106772;28;20230;-87
2022/01/15 00:37:17;;;;;;;31.83;18.52;;;;;;;1.10;85.29;99503.94;4078037;29;20218;-87
2022/01/15 00:39:21;;;;;;;25.00;15.15;;;;;;;1.10;85.75;99508.25;4090845;28;20226;-87
2022/01/15 00:41:24;;;;;;;21.27;13.90;;;;;;;1.09;85.79;99511.66;4075708;29;20277;-87
2022/01/15 00:43:27;;;;;;;17.95;12.65;;;;;;;1.08;85.34;99509.94;4090164;28;20209;-87
2022/01/15 00:45:33;;;;;;;16.48;12.25;;;;;;;1.08;85.94;99504.81;4089976;28;20299;-88
2022/01/15 00:47:37;;;;;;;16.80;12.05;;;;;;;1.08;85.98;99507.38;4090276;28;20308;-87
2022/01/15 00:49:41;;;;;;;21.23;12.98;;;;;;;1.13;85.69;99505.66;4090948;28;20731;-87
2022/01/15 00:51:44;;;;;;;20.42;12.82;;;;;;;1.08;86.06;99510.81;4094964;28;20294;-87
2022/01/15 00:53:47;;;;;;;18.70;11.82;;;;;;;1.08;86.17;99505.69;4087530;28;20213;-87
2022/01/15 00:55:50;;;;;;;17.35;12.63;;;;;;;1.06;86.50;99504.00;4084360;28;20234;-87
2022/01/15 00:57:53;;;;;;;17.63;11.20;;;;;;;1.01;86.14;99504.03;4092100;28;20244;-87
2022/01/15 00:59:56;;;;;;;15.88;11.95;;;;;;;0.98;85.42;99500.63;4091275;28;20216;-87
2022/01/15 01:01:59;;;;;;;20.90;12.38;;;;;;;0.91;85.10;99501.53;4091143;28;20198;-87
2022/01/15 01:04:04;;;;;;;14.60;11.00;;;;;;;0.86;84.06;99490.47;4090565;28;20248;-87
2022/01/15 01:06:07;;;;;;;46.28;23.60;;;;;;;0.89;84.33;99498.16;4089918;28;20280;-87
2022/01/15 01:08:10;;;;;;;32.10;17.85;;;;;;;0.88;85.14;99501.56;4103088;28;20215;-87
2022/01/15 01:10:37;;;;;;;35.17;18.98;;;;;;;0.89;84.83;99497.28;4087366;28;20216;-87
2022/01/15 01:13:07;;;;;;;22.45;13.60;;;;;;;0.89;85.31;99498.16;4085971;28;20219;-87
2022/01/15 01:20:09;;;;;;;17.80;12.00;;;;;;;0.88;85.92;99495.59;4098232;28;20292;-87
2022/01/15 01:24:48;;;;;;;24.65;14.23;;;;;;;0.93;85.32;99486.97;4074384;29;20214;-87
2022/01/15 01:26:56;;;;;;;27.13;15.25;;;;;;;0.91;86.09;99488.72;4055302;29;20214;-87
2022/01/15 01:29:07;;;;;;;20.95;13.90;;;;;;;0.93;86.17;99483.56;4071982;29;20215;-87
2022/01/15 01:31:16;;;;;;;19.63;11.55;;;;;;;0.94;86.94;99484.38;4088940;28;20574;-87
2022/01/15 01:33:32;;;;;;;21.45;14.00;;;;;;;0.93;86.27;99481.84;4105141;28;20208;-87
2022/01/15 01:35:40;;;;;;;21.35;13.23;;;;;;;0.94;86.06;99481.81;4091174;28;20274;-87
2022/01/15 01:37:48;;;;;;;19.65;12.15;;;;;;;0.94;86.42;99478.41;4078186;29;20233;-87
2022/01/15 01:40:00;;;;;;;18.15;12.18;;;;;;;0.95;86.40;99475.00;4076073;29;20240;-87
2022/01/15 01:42:14;;;;;;;19.45;12.05;;;;;;;0.94;86.02;99475.84;4091858;28;20553;-87
2022/01/15 01:44:24;;;;;;;17.40;11.48;;;;;;;0.94;85.56;99475.84;4075555;29;20220;-87
2022/01/15 01:46:40;;;;;;;20.63;12.70;;;;;;;0.91;85.76;99475.03;4090143;28;20213;-87
2022/01/15 01:48:44;;;;;;;20.98;12.73;;;;;;;0.90;85.76;99476.72;4088690;28;20240;-87
2022/01/15 01:50:48;;;;;;;19.13;11.45;;;;;;;0.90;86.14;99475.88;4082843;28;20299;-87
2022/01/15 01:52:53;;;;;;;18.85;12.35;;;;;;;0.90;86.27;99481.03;4100747;28;20222;-87
2022/01/15 01:54:56;;;;;;;19.83;12.00;;;;;;;0.90;85.75;99473.31;4090323;28;20220;-87
2022/01/15 01:56:59;;;;;;;17.40;10.98;;;;;;;0.90;85.42;99470.75;4090488;28;20208;-88
2022/01/15 01:59:04;;;;;;;15.00;11.88;;;;;;;0.90;85.33;99465.63;4088399;28;20223;-87
2022/01/15 02:01:07;;;;;;;18.42;11.73;;;;;;;0.87;85.46;99463.91;4073160;29;20262;-87
2022/01/15 02:03:10;;;;;;;16.23;10.30;;;;;;;0.85;85.07;99464.81;4076937;29;20201;-87
2022/01/15 02:05:14;;;;;;;26.10;11.85;;;;;;;0.82;85.64;99457.13;4074682;28;20216;-87
2022/01/15 02:07:19;;;;;;;19.27;13.30;;;;;;;0.86;85.78;99467.38;4103100;28;20235;-87
2022/01/15 02:09:23;;;;;;;17.92;11.68;;;;;;;0.84;85.46;99456.25;4087454;28;20296;-87
2022/01/15 02:11:26;;;;;;;16.67;10.90;;;;;;;0.81;85.80;99458.84;4087796;28;20728;-87
2022/01/15 02:13:30;;;;;;;17.25;11.90;;;;;;;0.81;85.73;99447.72;4083071;28;20236;-87
2022/01/15 02:15:34;;;;;;;16.35;10.65;;;;;;;0.82;85.46;99454.56;4102944;28;20595;-87
2022/01/15 02:17:37;;;;;;;18.48;11.25;;;;;;;0.84;85.25;99456.25;4074600;29;20242;-87
2022/01/15 02:19:57;;;;;;;21.13;11.27;;;;;;;0.83;85.91;99451.13;4105527;28;20311;-87
2022/01/15 02:24:20;;;;;;;17.35;11.77;;;;;;;0.82;85.67;99454.56;4107190;28;20616;-87
2022/01/15 02:26:25;;;;;;;13.45;10.00;;;;;;;0.79;85.73;99440.03;4106785;28;20564;-87
2022/01/15 02:28:30;;;;;;;18.70;9.65;;;;;;;0.81;85.93;99440.88;4087801;28;20213;-87
2022/01/15 02:30:33;;;;;;;20.55;11.45;;;;;;;0.84;85.53;99438.28;4088818;28;20243;-87
2022/01/15 02:32:36;;;;;;;17.88;11.52;;;;;;;0.84;85.32;99442.56;4104474;28;20616;-87
2022/01/15 02:34:42;;;;;;;19.20;11.80;;;;;;;0.84;85.92;99435.72;4076388;29;20222;-91
2022/01/15 02:36:45;;;;;;;32.20;15.93;;;;;;;0.84;85.63;99435.72;4075530;29;20772;-91
2022/01/15 02:38:51;;;;;;;16.90;11.20;;;;;;;0.83;85.37;99426.31;4077577;29;20250;-91
2022/01/15 02:40:55;;;;;;;19.23;12.65;;;;;;;0.84;85.64;99432.31;4093531;28;20269;-91
2022/01/15 02:42:58;;;;;;;18.45;11.52;;;;;;;0.80;85.61;99430.59;4087535;28;20203;-91
2022/01/15 02:45:03;;;;;;;19.65;12.40;;;;;;;0.80;85.43;99426.34;4074705;29;20295;-91
2022/01/15 02:49:27;;;;;;;18.23;11.50;;;;;;;0.79;85.31;99427.19;4089138;28;20968;-91
2022/01/15 02:51:32;;;;;;;18.35;11.98;;;;;;;0.79;84.96;99424.63;4092771;28;20234;-91
2022/01/15 02:53:35;;;;;;;22.13;12.10;;;;;;;0.80;85.45;99420.34;4093996;28;20206;-92
2022/01/15 02:55:42;;;;;;;16.48;10.50;;;;;;;0.82;85.44;99424.59;4090969;28;20813;-91
2022/01/15 02:57:45;;;;;;;19.60;11.50;;;;;;;0.83;85.69;99416.06;4091138;28;20219;-91
2022/01/15 02:59:48;;;;;;;20.42;10.88;;;;;;;0.84;85.26;99420.31;4105150;28;20209;-91
2022/01/15 03:01:51;;;;;;;20.63;11.82;;;;;;;0.85;85.93;99419.44;4076263;29;20224;-91
2022/01/15 03:03:55;;;;;;;17.60;10.98;;;;;;;0.86;85.20;99412.59;4091418;28;20644;-91
2022/01/15 03:05:58;;;;;;;19.05;11.30;;;;;;;0.86;84.85;99415.16;4092834;28;20272;-91
2022/01/15 03:08:03;;;;;;;16.48;11.48;;;;;;;0.83;84.97;99410.06;4077627;29;20738;-91
2022/01/15 03:10:08;;;;;;;16.45;11.65;;;;;;;0.81;85.16;99409.22;4093325;28;20299;-91
2022/01/15 03:12:11;;;;;;;17.70;11.75;;;;;;;0.82;85.61;99414.34;4061992;29;20875;-91
2022/01/15 03:14:18;;;;;;;20.02;11.35;;;;;;;0.84;85.49;99404.91;4094400;28;20576;-91
2022/01/15 03:16:23;;;;;;;15.93;10.73;;;;;;;0.85;85.88;99406.63;4078914;29;20225;-91
2022/01/15 03:18:26;;;;;;;18.23;11.40;;;;;;;0.80;85.53;99405.81;4094991;28;20283;-92
2022/01/15 03:20:29;;;;;;;19.60;10.30;;;;;;;0.72;84.52;99402.47;4091007;28;20231;-91
2022/01/15 03:22:32;;;;;;;15.63;10.00;;;;;;;0.61;83.40;99404.25;4078416;29;20217;-91
2022/01/15 03:24:37;;;;;;;16.38;10.63;;;;;;;0.54;83.15;99397.50;4097443;28;20722;-91
2022/01/15 03:26:41;;;;;;;17.88;10.50;;;;;;;0.49;83.28;99394.09;4090129;28;20779;-91
2022/01/15 03:28:44;;;;;;;15.20;10.48;;;;;;;0.48;83.52;99402.69;4092672;28;20209;-91
2022/01/15 03:30:47;;;;;;;13.13;10.15;;;;;;;0.47;83.83;99390.72;4108891;28;20261;-91
2022/01/15 03:32:51;;;;;;;14.88;10.60;;;;;;;0.51;84.95;99396.66;4076162;29;20210;-91
2022/01/15 03:34:54;;;;;;;16.35;11.05;;;;;;;0.49;85.15;99391.53;4109024;28;20292;-91
2022/01/15 03:36:57;;;;;;;19.08;11.70;;;;;;;0.53;84.82;99392.38;4093986;28;20320;-91
2022/01/15 03:39:00;;;;;;;17.30;10.43;;;;;;;0.52;85.42;99388.94;4078558;29;20298;-92
2022/01/15 03:41:05;;;;;;;15.43;10.85;;;;;;;0.55;85.20;99391.47;4093728;28;20217;-91
2022/01/15 03:43:08;;;;;;;20.60;11.38;;;;;;;0.59;85.46;99382.06;4078773;29;20273;-91
2022/01/15 03:45:13;;;;;;;39.85;20.88;;;;;;;0.65;85.33;99385.41;4094203;28;20331;-91
2022/01/15 03:47:17;;;;;;;27.67;16.50;;;;;;;0.69;85.40;99394.81;4079575;29;20310;-91
2022/01/15 03:49:21;;;;;;;16.02;11.10;;;;;;;0.67;85.29;99388.81;4090630;28;20219;-91
2022/01/15 03:51:24;;;;;;;15.95;10.50;;;;;;;0.64;85.42;99376.00;4091348;28;20226;-91
2022/01/15 03:53:27;;;;;;;17.38;11.10;;;;;;;0.66;85.92;99379.44;4089468;28;20237;-91
2022/01/15 03:55:32;;;;;;;15.93;10.50;;;;;;;0.68;86.06;99380.25;4088144;28;20208;-91
2022/01/15 03:57:38;;;;;;;17.92;11.43;;;;;;;0.67;85.49;99375.97;4093877;28;20240;-91
2022/01/15 03:59:41;;;;;;;18.73;11.57;;;;;;;0.60;84.74;99373.47;4079611;29;20199;-91
2022/01/15 04:01:44;;;;;;;19.23;10.88;;;;;;;0.62;84.76;99372.63;4078204;29;20725;-91
2022/01/15 04:03:48;;;;;;;17.15;11.85;;;;;;;0.57;84.28;99371.81;4111065;28;20283;-91
2022/01/15 04:05:51;;;;;;;15.07;10.70;;;;;;;0.57;84.90;99361.56;4080020;29;20273;-91
2022/01/15 04:07:54;;;;;;;19.95;12.02;;;;;;;0.60;84.48;99371.78;4091646;28;20210;-91
2022/01/15 04:09:57;;;;;;;19.48;11.90;;;;;;;0.59;84.63;99376.94;4078036;29;20217;-91
2022/01/15 04:12:00;;;;;;;19.77;11.80;;;;;;;0.61;85.02;99367.50;4091968;28;20233;-91
2022/01/15 04:14:06;;;;;;;19.63;12.43;;;;;;;0.57;85.16;99361.56;4111094;28;20210;-91
2022/01/15 04:16:09;;;;;;;17.67;11.18;;;;;;;0.58;85.21;99363.22;4093575;28;20204;-91
2022/01/15 04:18:12;;;;;;;16.92;10.20;;;;;;;0.53;84.86;99370.13;4091503;28;20216;-90
2022/01/15 04:20:19;;;;;;;15.98;10.68;;;;;;;0.52;84.73;99378.69;4104388;28;20217;-91
2022/01/15 04:22:22;;;;;;;21.85;11.82;;;;;;;0.50;84.67;99380.41;4086672;28;20260;-91
2022/01/15 04:24:25;;;;;;;15.68;11.27;;;;;;;0.45;84.11;99376.19;4086250;28;20212;-91
2022/01/15 04:26:29;;;;;;;17.70;11.18;;;;;;;0.40;83.63;99377.09;4087640;28;20749;-91
2022/01/15 04:28:34;;;;;;;15.95;10.57;;;;;;;0.36;84.40;99365.16;4102799;28;20289;-91
2022/01/15 04:30:40;;;;;;;15.32;10.55;;;;;;;0.39;83.98;99370.25;4102179;28;20254;-91
2022/01/15 04:32:44;;;;;;;18.42;10.88;;;;;;;0.40;84.16;99374.53;4087510;28;20226;-91
2022/01/15 04:34:48;;;;;;;21.00;11.80;;;;;;;0.42;84.31;99370.22;4107278;28;20738;-92
2022/01/15 04:36:51;;;;;;;16.65;10.50;;;;;;;0.41;84.61;99369.38;4094097;28;20357;-91
2022/01/15 04:38:55;;;;;;;18.85;11.68;;;;;;;0.39;85.00;99360.84;4109013;28;20256;-91
2022/01/15 04:40:58;;;;;;;15.02;10.30;;;;;;;0.41;84.73;99371.09;4090104;28;20214;-91
2022/01/15 04:43:01;;;;;;;17.17;11.05;;;;;;;0.45;84.08;99363.34;4094105;28;20790;-91
2022/01/15 04:45:07;;;;;;;19.15;11.32;;;;;;;0.40;84.58;99366.84;4095838;28;20262;-91
2022/01/15 04:47:11;;;;;;;17.25;10.93;;;;;;;0.36;84.53;99362.59;4092885;28;20583;-91
2022/01/15 04:49:14;;;;;;;18.02;11.75;;;;;;;0.31;84.67;99356.66;4101995;28;20215;-91
2022/01/15 04:51:17;;;;;;;17.08;11.40;;;;;;;0.30;84.67;99365.19;4092641;28;20607;-92
2022/01/15 04:53:21;;;;;;;15.43;10.27;;;;;;;0.31;84.76;99356.66;4094101;28;20586;-91
2022/01/15 04:55:24;;;;;;;16.70;10.95;;;;;;;0.32;84.66;99361.78;4078524;29;20656;-91
2022/01/15 04:57:27;;;;;;;17.70;11.43;;;;;;;0.32;84.22;99360.94;4076708;29;20307;-91
2022/01/15 04:59:30;;;;;;;17.73;11.75;;;;;;;0.30;84.83;99355.81;4092615;28;20208;-91
2022/01/15 05:01:33;;;;;;;15.88;11.15;;;;;;;0.35;84.93;99355.78;4076893;29;20229;-92
2022/01/15 05:03:38;;;;;;;18.85;11.10;;;;;;;0.34;84.90;99359.19;4094268;28;20757;-91
2022/01/15 05:05:41;;;;;;;17.30;10.40;;;;;;;0.36;84.66;99360.91;4092886;28;20260;-92
2022/01/15 05:07:45;;;;;;;15.65;10.65;;;;;;;0.37;84.55;99367.69;4097281;28;20212;-91
2022/01/15 05:09:48;;;;;;;16.38;11.27;;;;;;;0.38;85.42;99371.13;4092570;28;20213;-91
2022/01/15 05:12:00;;;;;;;18.95;10.63;;;;;;;0.38;84.70;99371.97;4078274;29;20207;-92
2022/01/15 05:14:03;;;;;;;20.38;11.60;;;;;;;0.41;85.06;99376.22;4075645;29;20352;-92
2022/01/15 05:16:07;;;;;;;20.25;12.18;;;;;;;0.46;84.55;99376.16;4091737;28;20216;-92
2022/01/15 05:18:11;;;;;;;18.60;11.55;;;;;;;0.46;84.03;99381.28;4094651;28;20631;-92
2022/01/15 05:20:18;;;;;;;19.90;12.15;;;;;;;0.45;83.89;99376.19;4076512;29;20230;-92
2022/01/15 05:22:21;;;;;;;19.25;12.43;;;;;;;0.47;83.71;99375.31;4072274;29;20602;-91
2022/01/15 05:24:26;;;;;;;19.35;11.15;;;;;;;0.44;83.36;99383.88;4085765;28;20216;-92
2022/01/15 05:26:29;;;;;;;16.40;10.75;;;;;;;0.33;83.31;99391.69;4089166;28;21583;-91
2022/01/15 05:28:32;;;;;;;18.65;10.90;;;;;;;0.25;82.53;99382.34;4087836;28;20519;-92
2022/01/15 05:30:36;;;;;;;14.43;10.50;;;;;;;0.26;82.92;99382.34;4092479;28;20209;-91
2022/01/15 05:32:40;;;;;;;18.05;11.45;;;;;;;0.27;83.02;99380.59;4093719;28;20227;-92
2022/01/15 05:34:43;;;;;;;17.10;9.88;;;;;;;0.26;83.21;99378.94;4108401;28;20201;-92
2022/01/15 05:36:47;;;;;;;18.45;11.85;;;;;;;0.24;83.62;99375.50;4089640;28;20308;-92
2022/01/15 05:38:51;;;;;;;15.95;11.25;;;;;;;0.26;84.11;99379.78;4090587;28;20323;-91
2022/01/15 05:40:54;;;;;;;14.48;10.30;;;;;;;0.25;83.69;99384.91;4107565;28;20215;-92
2022/01/15 05:42:58;;;;;;;15.25;10.60;;;;;;;0.23;82.84;99381.50;4092234;28;20198;-91
2022/01/15 05:45:01;;;;;;;16.33;10.95;;;;;;;0.19;82.68;99377.25;4085014;28;20210;-91
2022/01/15 05:47:04;;;;;;;16.35;10.75;;;;;;;0.12;83.08;99370.47;4078657;29;20212;-91
2022/01/15 05:49:08;;;;;;;15.27;10.70;;;;;;;0.16;83.29;99377.28;4089343;28;20705;-90
2022/01/15 05:51:11;;;;;;;15.93;10.50;;;;;;;0.12;82.83;99373.03;4073330;29;20217;-91
2022/01/15 05:53:15;;;;;;;17.58;10.65;;;;;;;0.14;82.84;99371.31;4089349;28;20932;-91
2022/01/15 05:55:18;;;;;;;15.63;10.20;;;;;;;0.13;83.08;99372.16;4086558;28;20218;-92
2022/01/15 05:57:22;;;;;;;15.80;11.02;;;;;;;0.11;82.96;99373.91;4090488;28;20210;-91
2022/01/15 05:59:25;;;;;;;19.90;11.55;;;;;;;0.13;83.24;99387.56;4079011;29;20712;-92
2022/01/15 06:01:28;;;;;;;19.85;11.57;;;;;;;0.14;83.49;99384.13;4086350;28;20215;-91
2022/01/15 06:03:31;;;;;;;15.13;11.15;;;;;;;0.16;83.67;99374.72;4082555;28;20301;-91
2022/01/15 06:05:34;;;;;;;18.17;11.07;;;;;;;0.18;83.56;99380.66;4089751;28;20709;-92
2022/01/15 06:07:38;;;;;;;17.77;10.85;;;;;;;0.25;83.74;99382.34;4090616;28;20234;-92
2022/01/15 06:09:42;;;;;;;17.13;11.15;;;;;;;0.22;84.13;99387.50;4104581;28;20212;-92
2022/01/15 06:11:45;;;;;;;17.70;12.68;;;;;;;0.23;84.69;99373.81;4103051;28;20207;-91
2022/01/15 06:13:49;;;;;;;20.40;13.65;;;;;;;0.27;84.07;99376.34;4100848;28;20210;-91
2022/01/15 06:15:52;;;;;;;24.17;13.48;;;;;;;0.31;84.56;99379.72;4084249;28;21225;-91
2022/01/15 06:17:55;;;;;;;19.25;12.38;;;;;;;0.34;84.20;99379.72;4104106;28;20310;-91
2022/01/15 06:19:58;;;;;;;20.05;12.45;;;;;;;0.32;83.71;99371.19;4092476;28;20692;-92
2022/01/15 06:22:02;;;;;;;13.35;10.50;;;;;;;0.24;82.38;99373.81;4077736;29;20244;-91
2022/01/15 06:24:06;;;;;;;16.00;9.70;;;;;;;0.08;81.79;99369.63;4092680;28;20210;-92
2022/01/15 06:26:10;;;;;;;18.33;11.30;;;;;;;0.00;81.88;99375.69;4078374;28;20289;-92
2022/01/15 06:28:14;;;;;;;20.70;11.68;;;;;;;-0.05;81.29;99377.41;4089903;28;20300;-91
2022/01/15 06:30:17;;;;;;;18.73;11.98;;;;;;;-0.13;81.77;99366.38;4079149;28;20213;-91
2022/01/15 06:32:20;;;;;;;19.70;12.15;;;;;;;-0.17;82.38;99368.97;4075267;29;20203;-91
2022/01/15 06:34:23;;;;;;;17.58;11.50;;;;;;;-0.18;82.28;99364.69;4090549;28;20722;-91
2022/01/15 06:36:26;;;;;;;19.35;12.15;;;;;;;-0.17;82.76;99371.53;4087293;28;20774;-91
2022/01/15 06:38:29;;;;;;;19.20;12.48;;;;;;;-0.15;83.94;99369.78;4092126;28;20251;-91
2022/01/15 06:40:33;;;;;;;21.73;11.65;;;;;;;-0.13;83.97;99368.09;4073985;29;20600;-91
2022/01/15 06:42:38;;;;;;;19.23;12.15;;;;;;;-0.11;83.61;99367.19;4090063;28;20217;-92
2022/01/15 06:44:41;;;;;;;19.20;12.73;;;;;;;-0.16;83.92;99362.97;4095016;28;20215;-91
2022/01/15 06:46:44;;;;;;;19.88;12.10;;;;;;;-0.12;83.83;99365.53;4076527;29;20221;-91
2022/01/15 06:48:48;;;;;;;21.30;12.00;;;;;;;-0.09;83.58;99374.88;4100321;28;20242;-91
2022/01/15 06:50:51;;;;;;;19.90;11.65;;;;;;;-0.11;84.00;99371.50;4090877;28;20218;-91
2022/01/15 06:52:54;;;;;;;19.35;12.40;;;;;;;-0.10;83.75;99363.78;4089934;28;20744;-91
2022/01/15 06:54:57;;;;;;;18.15;12.07;;;;;;;-0.10;83.80;99362.94;4091664;28;20575;-91
2022/01/15 06:57:00;;;;;;;19.27;13.15;;;;;;;-0.10;83.57;99358.66;4089297;28;20682;-91
2022/01/15 06:59:05;;;;;;;19.38;12.43;;;;;;;-0.10;83.42;99356.09;4077928;29;20602;-91
2022/01/15 07:01:08;;;;;;;15.82;11.77;;;;;;;-0.13;83.46;99358.69;4086593;28;20236;-91
2022/01/15 07:03:11;;;;;;;16.33;11.75;;;;;;;-0.13;83.35;99356.13;4107645;28;20223;-91
2022/01/15 07:05:15;;;;;;;18.00;12.15;;;;;;;-0.17;83.43;99354.44;4089199;28;20274;-92
2022/01/15 07:07:18;;;;;;;19.80;11.90;;;;;;;-0.19;83.65;99348.47;4090873;28;20266;-91
2022/01/15 07:09:21;;;;;;;17.48;12.10;;;;;;;-0.12;84.53;99349.28;4085009;28;20209;-92
2022/01/15 07:11:24;;;;;;;16.67;10.93;;;;;;;-0.11;83.97;99354.38;4088677;28;20210;-92
2022/01/15 07:13:29;;;;;;;20.98;12.70;;;;;;;-0.08;83.87;99356.09;4091793;28;20680;-92
2022/01/15 07:15:34;;;;;;;18.55;12.43;;;;;;;-0.06;83.51;99350.09;4086990;28;20217;-91
2022/01/15 07:17:41;;;;;;;17.10;11.68;;;;;;;-0.03;83.79;99339.84;4099100;28;20208;-92
2022/01/15 07:19:45;;;;;;;22.30;12.65;;;;;;;0.01;83.74;99350.03;4097971;28;20250;-91
2022/01/15 07:21:48;;;;;;;20.98;12.25;;;;;;;0.05;83.44;99344.03;4104878;28;20215;-91
2022/01/15 07:23:51;;;;;;;17.15;12.55;;;;;;;0.07;83.80;99336.31;4099147;28;20253;-92
2022/01/15 07:25:54;;;;;;;20.10;12.15;;;;;;;0.05;84.35;99341.47;4088498;28;20211;-91
2022/01/15 07:27:58;;;;;;;19.38;12.20;;;;;;;0.07;84.19;99336.31;4085788;28;20289;-92
2022/01/15 07:30:02;;;;;;;22.67;12.48;;;;;;;0.06;83.17;99342.31;4076795;29;20681;-91
2022/01/15 07:32:07;;;;;;;19.30;12.40;;;;;;;0.06;83.58;99345.75;4087842;28;20208;-90
2022/01/15 07:34:11;;;;;;;20.80;12.93;;;;;;;0.11;83.28;99345.69;4089884;28;20255;-90
2022/01/15 07:36:14;;;;;;;21.73;13.40;;;;;;;0.16;83.59;99334.53;4102954;28;20215;-86
2022/01/15 07:38:20;;;;;;;18.50;12.70;;;;;;;0.24;83.49;99347.28;4091105;28;20215;-92
2022/01/15 07:40:23;;;;;;;18.33;12.90;;;;;;;0.27;83.28;99343.00;4077165;29;20212;-90
2022/01/15 07:42:28;;;;;;;23.17;14.70;;;;;;;0.31;83.91;99342.09;4093016;28;20212;-89
2022/01/15 07:44:31;;;;;;;20.10;14.63;;;;;;;0.37;84.11;99346.34;4079453;29;20659;-89
2022/01/15 07:46:34;;;;;;;24.75;14.20;;;;;;;0.50;83.92;99346.22;4079912;29;20214;-90
2022/01/15 07:48:39;;;;;;;22.55;15.07;;;;;;;0.61;83.46;99350.38;4089463;28;20239;-90
2022/01/15 07:50:42;;;;;;;28.35;15.75;;;;;;;0.70;83.31;99347.72;4087986;28;20669;-87
2022/01/15 07:52:46;;;;;;;21.17;14.95;;;;;;;0.85;83.92;99346.75;4090358;28;20210;-88
2022/01/15 07:54:49;;;;;;;20.58;14.85;;;;;;;0.98;83.66;99339.75;4074370;28;20225;-89
2022/01/15 07:56:55;;;;;;;27.23;18.63;;;;;;;1.10;81.84;99338.75;4073117;29;20722;-88
2022/01/15 07:58:58;;;;;;;20.42;15.27;;;;;;;1.12;80.90;99340.44;4092048;28;20282;-89
2022/01/15 08:01:01;;;;;;;63.05;39.95;;;;;;;1.12;80.16;99339.59;4109917;28;20676;-88
2022/01/15 08:03:11;;;;;;;33.90;22.77;;;;;;;1.11;79.11;99345.56;4093753;28;20268;-91
2022/01/15 08:05:16;;;;;;;22.95;14.32;;;;;;;1.12;80.39;99332.72;4073327;29;20220;-86
2022/01/15 08:07:22;;;;;;;24.23;13.00;;;;;;;1.13;80.71;99320.75;4094082;28;20232;-91
2022/01/15 08:09:25;;;;;;;25.38;15.05;;;;;;;1.20;80.52;99327.50;4094806;28;20212;-89
2022/01/15 08:11:28;;;;;;;23.60;17.02;;;;;;;1.24;81.04;99332.59;4081852;29;20209;-91
2022/01/15 08:13:31;;;;;;;23.13;16.02;;;;;;;1.32;81.38;99329.91;4075510;29;20693;-87
2022/01/15 08:15:37;;;;;;;27.70;18.02;;;;;;;1.40;81.03;99331.53;4088670;28;20220;-85
2022/01/15 08:17:40;;;;;;;34.63;19.90;;;;;;;1.43;80.84;99328.94;4092785;28;20213;-86
2022/01/15 08:19:43;;;;;;;101.82;51.58;;;;;;;1.50;80.96;99335.66;4092671;28;20228;-87
2022/01/15 08:21:47;;;;;;;72.93;42.90;;;;;;;1.59;81.82;99328.69;4089563;28;100714;-88
2022/01/15 08:23:51;;;;;;;117.43;58.45;;;;;;;1.73;81.70;99329.38;4082487;29;20215;-90
2022/01/15 08:25:54;;;;;;;110.78;55.72;;;;;;;1.81;81.47;99324.13;4073424;29;20241;-90
2022/01/15 08:27:57;;;;;;;64.05;36.80;;;;;;;1.90;81.49;99327.41;4097494;28;20212;-90
2022/01/15 08:30:00;;;;;;;57.00;32.92;;;;;;;1.99;81.53;99322.97;4095642;28;20291;-90
2022/01/15 08:32:04;;;;;;;49.83;26.17;;;;;;;2.12;81.42;99318.47;4076778;29;20207;-89
2022/01/15 08:34:07;;;;;;;39.40;25.27;;;;;;;2.23;81.26;99308.88;4073286;29;20215;-90
2022/01/15 08:36:11;;;;;;;36.25;24.15;;;;;;;2.31;81.31;99317.31;4070478;29;20296;-91
2022/01/15 08:38:15;;;;;;;51.20;29.65;;;;;;;2.34;81.33;99316.38;4097361;29;20225;-90
2022/01/15 08:40:20;;;;;;;44.15;28.90;;;;;;;2.42;81.23;99317.13;4076163;29;21387;-90
2022/01/15 08:42:23;;;;;;;41.85;26.63;;;;;;;2.52;81.95;99315.22;4092613;28;20206;-89
2022/01/15 08:44:26;;;;;;;42.83;25.52;;;;;;;2.60;81.56;99319.38;4096931;28;20229;-89
2022/01/15 08:46:30;;;;;;;38.92;25.40;;;;;;;2.72;81.29;99319.16;4093345;28;20744;-89
2022/01/15 08:48:33;;;;;;;36.53;23.20;;;;;;;2.85;81.30;99315.47;4112357;28;20230;-90
2022/01/15 08:50:36;;;;;;;41.85;24.48;;;;;;;2.91;81.67;99316.19;4073392;29;20590;-87
2022/01/15 08:52:40;;;;;;;46.45;27.90;;;;;;;2.97;81.68;99312.69;4110382;28;20228;-91
2022/01/15 08:54:44;;;;;;;44.33;26.23;;;;;;;3.01;81.29;99302.28;4113888;28;20213;-93
2022/01/15 08:56:48;;;;;;;39.08;25.17;;;;;;;3.06;80.92;99303.03;4109336;28;20215;-90
2022/01/15 08:58:51;;;;;;;40.53;26.08;;;;;;;3.09;80.97;99315.03;4075387;29;20762;-91
2022/01/15 09:00:55;;;;;;;40.25;25.20;;;;;;;3.13;82.51;99312.34;4076705;29;20325;-88
2022/01/15 09:02:58;;;;;;;35.03;22.48;;;;;;;3.22;81.46;99312.19;4113662;28;20206;-88
2022/01/15 09:05:02;;;;;;;29.40;19.92;;;;;;;3.28;80.85;99318.03;4079072;29;20737;-89
2022/01/15 09:07:10;;;;;;;27.98;22.02;;;;;;;3.34;81.18;99311.94;4095687;28;20229;-86
2022/01/15 09:09:13;;;;;;;40.47;22.60;;;;;;;3.40;81.63;99310.06;4077014;29;20202;-86
2022/01/15 09:11:17;;;;;;;32.03;22.30;;;;;;;3.47;81.66;99308.19;4095865;28;20652;-89
2022/01/15 09:13:21;;;;;;;32.42;21.63;;;;;;;3.53;82.14;99306.34;4093127;28;20252;-89
2022/01/15 09:15:24;;;;;;;33.55;22.63;;;;;;;3.59;81.74;99308.78;4077989;29;20210;-88
2022/01/15 09:17:29;;;;;;;41.20;22.50;;;;;;;3.61;80.63;99307.03;4108197;28;20220;-87
2022/01/15 09:19:33;;;;;;;35.72;22.17;;;;;;;3.66;80.96;99314.69;4092157;28;20217;-87
2022/01/15 09:21:36;;;;;;;29.40;21.90;;;;;;;3.69;81.16;99307.72;4079085;29;20221;-88
2022/01/15 09:23:39;;;;;;;28.77;20.38;;;;;;;3.75;81.42;99305.84;4075502;29;20218;-88
2022/01/15 09:25:42;;;;;;;33.10;20.70;;;;;;;3.83;80.72;99311.69;4071164;29;20257;-88
2022/01/15 09:30:15;;;;;;;39.17;22.58;;;;;;;3.94;81.47;99307.13;4091970;28;20268;-88
2022/01/15 09:32:19;;;;;;;33.92;21.63;;;;;;;3.96;81.90;99300.19;4116433;28;20211;-88
2022/01/15 09:34:22;;;;;;;30.42;22.63;;;;;;;4.01;80.32;99300.94;4092412;28;20226;-88
2022/01/15 09:36:25;;;;;;;34.17;22.67;;;;;;;4.09;80.95;99304.22;4091007;29;20210;-88
2022/01/15 09:38:28;;;;;;;31.38;22.98;;;;;;;4.18;81.37;99304.00;4087320;28;20605;-88
2022/01/15 09:40:31;;;;;;;36.58;25.70;;;;;;;4.28;82.12;99301.16;4114213;28;20681;-88
2022/01/15 09:42:35;;;;;;;37.05;25.90;;;;;;;4.28;80.48;99306.31;4079215;29;20207;-88
2022/01/15 09:44:40;;;;;;;33.15;24.45;;;;;;;4.34;81.29;99302.72;4075659;29;20257;-88
2022/01/15 09:46:45;;;;;;;35.60;24.33;;;;;;;4.42;81.27;99301.66;4077936;29;20214;-88
2022/01/15 09:48:49;;;;;;;36.67;25.48;;;;;;;4.53;79.90;99301.41;4095544;28;20214;-88
2022/01/15 09:50:53;;;;;;;51.85;41.20;;;;;;;4.57;81.17;99309.03;4113134;28;20600;-88
2022/01/15 09:52:57;;;;;;;30.88;22.10;;;;;;;4.66;80.21;99300.16;4093822;28;20294;-89